sensor_id;sensor_type;location;lat;lon;timestamp;P1;durP1;ratioP1;P2;durP2;ratioP2
66933;SDS011;53846;51.984;5.890;2022-09-17T00:00:38;119.03;;;113.00;;
66933;SDS011;53846;51.984;5.890;2022-09-17T00:03:08;127.30;;;120.90;;
66933;SDS011;53846;51.984;5.890;2022-09-17T00:05:37;136.57;;;129.40;;
66933;SDS011;53846;51.984;5.890;2022-09-17T00:08:08;150.43;;;142.73;;
66933;SDS011;53846;51.984;5.890;2022-09-17T00:10:42;178.03;;;168.93;;
66933;SDS011;53846;51.984;5.890;2022-09-17T00:13:11;146.37;;;138.87;;
66933;SDS011;53846;51.984;5.890;2022-09-17T00:15:41;34.83;;;33.17;;
66933;SDS011;53846;51.984;5.890;2022-09-17T00:18:12;49.33;;;46.93;;
66933;SDS011;53846;51.984;5.890;2022-09-17T00:20:43;69.90;;;66.40;;
66933;SDS011;53846;51.984;5.890;2022-09-17T00:23:13;78.87;;;74.97;;
66933;SDS011;53846;51.984;5.890;2022-09-17T00:25:45;80.97;;;76.93;;
66933;SDS011;53846;51.984;5.890;2022-09-17T00:28:19;97.10;;;92.23;;
66933;SDS011;53846;51.984;5.890;2022-09-17T00:30:48;92.03;;;87.43;;
66933;SDS011;53846;51.984;5.890;2022-09-17T00:33:18;101.03;;;96.03;;
66933;SDS011;53846;51.984;5.890;2022-09-17T00:35:56;94.80;;;90.10;;
66933;SDS011;53846;51.984;5.890;2022-09-17T00:38:26;112.73;;;107.10;;
66933;SDS011;53846;51.984;5.890;2022-09-17T00:40:58;136.97;;;129.90;;
66933;SDS011;53846;51.984;5.890;2022-09-17T00:43:34;130.07;;;123.33;;
66933;SDS011;53846;51.984;5.890;2022-09-17T00:46:09;130.63;;;123.87;;
66933;SDS011;53846;51.984;5.890;2022-09-17T00:48:48;136.07;;;129.13;;
66933;SDS011;53846;51.984;5.890;2022-09-17T00:51:19;130.97;;;124.37;;
66933;SDS011;53846;51.984;5.890;2022-09-17T00:53:56;125.50;;;119.00;;
66933;SDS011;53846;51.984;5.890;2022-09-17T00:56:30;140.10;;;132.93;;
66933;SDS011;53846;51.984;5.890;2022-09-17T00:59:02;129.83;;;123.20;;
66933;SDS011;53846;51.984;5.890;2022-09-17T01:01:31;136.27;;;129.23;;
66933;SDS011;53846;51.984;5.890;2022-09-17T01:04:01;131.27;;;124.50;;
66933;SDS011;53846;51.984;5.890;2022-09-17T01:06:31;137.27;;;130.20;;
66933;SDS011;53846;51.984;5.890;2022-09-17T01:09:06;161.13;;;152.80;;
66933;SDS011;53846;51.984;5.890;2022-09-17T01:12:05;192.47;;;182.50;;
66933;SDS011;53846;51.984;5.890;2022-09-17T01:14:49;202.70;;;192.20;;
66933;SDS011;53846;51.984;5.890;2022-09-17T01:17:32;223.87;;;212.47;;
66933;SDS011;53846;51.984;5.890;2022-09-17T01:23:19;255.30;;;242.40;;
66933;SDS011;53846;51.984;5.890;2022-09-17T01:26:17;245.40;;;232.57;;
66933;SDS011;53846;51.984;5.890;2022-09-17T01:29:08;259.90;;;246.50;;
66933;SDS011;53846;51.984;5.890;2022-09-17T01:31:48;238.40;;;226.13;;
66933;SDS011;53846;51.984;5.890;2022-09-17T01:34:23;255.17;;;241.97;;
66933;SDS011;53846;51.984;5.890;2022-09-17T01:36:59;231.23;;;219.17;;
66933;SDS011;53846;51.984;5.890;2022-09-17T01:39:35;235.30;;;223.17;;
66933;SDS011;53846;51.984;5.890;2022-09-17T01:42:14;226.50;;;214.87;;
66933;SDS011;53846;51.984;5.890;2022-09-17T01:44:49;205.47;;;194.93;;
66933;SDS011;53846;51.984;5.890;2022-09-17T01:47:25;194.40;;;184.43;;
66933;SDS011;53846;51.984;5.890;2022-09-17T01:49:59;196.27;;;186.37;;
66933;SDS011;53846;51.984;5.890;2022-09-17T01:52:32;185.30;;;175.87;;
66933;SDS011;53846;51.984;5.890;2022-09-17T01:55:04;182.67;;;173.40;;
66933;SDS011;53846;51.984;5.890;2022-09-17T01:57:37;171.97;;;163.13;;
66933;SDS011;53846;51.984;5.890;2022-09-17T02:00:11;177.00;;;167.97;;
66933;SDS011;53846;51.984;5.890;2022-09-17T02:02:46;159.33;;;151.23;;
66933;SDS011;53846;51.984;5.890;2022-09-17T02:05:19;153.53;;;145.77;;
66933;SDS011;53846;51.984;5.890;2022-09-17T02:07:52;166.13;;;157.63;;
66933;SDS011;53846;51.984;5.890;2022-09-17T02:10:24;163.07;;;154.77;;
66933;SDS011;53846;51.984;5.890;2022-09-17T02:12:59;162.23;;;153.93;;
66933;SDS011;53846;51.984;5.890;2022-09-17T02:15:32;158.97;;;150.87;;
66933;SDS011;53846;51.984;5.890;2022-09-17T02:18:13;160.77;;;152.60;;
66933;SDS011;53846;51.984;5.890;2022-09-17T02:20:49;163.73;;;155.33;;
66933;SDS011;53846;51.984;5.890;2022-09-17T02:23:23;167.40;;;158.93;;
66933;SDS011;53846;51.984;5.890;2022-09-17T02:25:57;174.23;;;165.37;;
66933;SDS011;53846;51.984;5.890;2022-09-17T02:28:32;168.27;;;159.63;;
66933;SDS011;53846;51.984;5.890;2022-09-17T02:31:08;169.57;;;160.97;;
66933;SDS011;53846;51.984;5.890;2022-09-17T02:33:41;95.72;;;90.82;;
66933;SDS011;53846;51.984;5.890;2022-09-17T02:36:13;132.30;;;125.57;;
66933;SDS011;53846;51.984;5.890;2022-09-17T02:38:43;158.03;;;150.07;;
66933;SDS011;53846;51.984;5.890;2022-09-17T02:41:14;156.10;;;148.17;;
66933;SDS011;53846;51.984;5.890;2022-09-17T02:43:49;156.17;;;147.87;;
66933;SDS011;53846;51.984;5.890;2022-09-17T02:46:30;159.13;;;150.97;;
66933;SDS011;53846;51.984;5.890;2022-09-17T02:52:19;73.73;;;70.03;;
66933;SDS011;53846;51.984;5.890;2022-09-17T02:54:55;106.40;;;101.10;;
66933;SDS011;53846;51.984;5.890;2022-09-17T02:57:36;128.97;;;122.33;;
66933;SDS011;53846;51.984;5.890;2022-09-17T03:00:11;117.93;;;111.97;;
66933;SDS011;53846;51.984;5.890;2022-09-17T03:02:43;134.63;;;127.73;;
66933;SDS011;53846;51.984;5.890;2022-09-17T03:05:19;133.73;;;126.97;;
66933;SDS011;53846;51.984;5.890;2022-09-17T03:07:50;147.47;;;140.03;;
66933;SDS011;53846;51.984;5.890;2022-09-17T03:10:19;157.93;;;149.93;;
66933;SDS011;53846;51.984;5.890;2022-09-17T03:12:48;146.70;;;139.20;;
66933;SDS011;53846;51.984;5.890;2022-09-17T03:15:18;149.67;;;142.03;;
66933;SDS011;53846;51.984;5.890;2022-09-17T03:17:48;154.83;;;146.93;;
66933;SDS011;53846;51.984;5.890;2022-09-17T03:20:19;154.27;;;144.90;;
66933;SDS011;53846;51.984;5.890;2022-09-17T03:22:50;147.33;;;139.87;;
66933;SDS011;53846;51.984;5.890;2022-09-17T03:25:19;158.53;;;150.33;;
66933;SDS011;53846;51.984;5.890;2022-09-17T03:27:48;154.30;;;146.50;;
66933;SDS011;53846;51.984;5.890;2022-09-17T03:30:17;161.37;;;153.27;;
66933;SDS011;53846;51.984;5.890;2022-09-17T03:32:47;151.23;;;143.27;;
66933;SDS011;53846;51.984;5.890;2022-09-17T03:35:16;155.87;;;148.00;;
66933;SDS011;53846;51.984;5.890;2022-09-17T03:37:48;154.43;;;146.50;;
66933;SDS011;53846;51.984;5.890;2022-09-17T03:40:17;162.33;;;154.13;;
66933;SDS011;53846;51.984;5.890;2022-09-17T03:42:47;156.97;;;149.03;;
66933;SDS011;53846;51.984;5.890;2022-09-17T03:45:16;154.30;;;146.50;;
66933;SDS011;53846;51.984;5.890;2022-09-17T03:47:45;151.83;;;144.03;;
66933;SDS011;53846;51.984;5.890;2022-09-17T03:50:14;169.13;;;160.57;;
66933;SDS011;53846;51.984;5.890;2022-09-17T03:52:44;180.63;;;171.53;;
66933;SDS011;53846;51.984;5.890;2022-09-17T03:55:15;170.13;;;161.43;;
66933;SDS011;53846;51.984;5.890;2022-09-17T03:57:45;180.17;;;170.97;;
66933;SDS011;53846;51.984;5.890;2022-09-17T04:00:14;173.60;;;164.73;;
66933;SDS011;53846;51.984;5.890;2022-09-17T04:02:44;178.60;;;169.33;;
66933;SDS011;53846;51.984;5.890;2022-09-17T04:05:13;54.58;;;51.88;;
66933;SDS011;53846;51.984;5.890;2022-09-17T04:07:42;126.97;;;120.50;;
66933;SDS011;53846;51.984;5.890;2022-09-17T04:10:12;143.97;;;136.63;;
66933;SDS011;53846;51.984;5.890;2022-09-17T04:12:43;143.97;;;136.67;;
66933;SDS011;53846;51.984;5.890;2022-09-17T04:15:13;168.60;;;160.00;;
66933;SDS011;53846;51.984;5.890;2022-09-17T04:17:42;160.93;;;152.83;;
66933;SDS011;53846;51.984;5.890;2022-09-17T04:20:11;168.83;;;160.23;;
66933;SDS011;53846;51.984;5.890;2022-09-17T04:22:43;168.80;;;160.03;;
66933;SDS011;53846;51.984;5.890;2022-09-17T04:25:12;171.67;;;162.90;;
66933;SDS011;53846;51.984;5.890;2022-09-17T04:27:47;180.20;;;171.00;;
66933;SDS011;53846;51.984;5.890;2022-09-17T04:30:16;172.53;;;163.87;;
66933;SDS011;53846;51.984;5.890;2022-09-17T04:32:46;171.03;;;162.30;;
66933;SDS011;53846;51.984;5.890;2022-09-17T04:35:15;161.23;;;153.10;;
66933;SDS011;53846;51.984;5.890;2022-09-17T04:37:50;166.93;;;158.37;;
66933;SDS011;53846;51.984;5.890;2022-09-17T04:40:20;160.27;;;152.07;;
66933;SDS011;53846;51.984;5.890;2022-09-17T04:42:53;184.93;;;175.47;;
66933;SDS011;53846;51.984;5.890;2022-09-17T04:45:24;183.67;;;174.20;;
66933;SDS011;53846;51.984;5.890;2022-09-17T04:47:54;169.67;;;161.10;;
66933;SDS011;53846;51.984;5.890;2022-09-17T04:50:23;169.17;;;160.60;;
66933;SDS011;53846;51.984;5.890;2022-09-17T04:52:52;171.80;;;163.03;;
66933;SDS011;53846;51.984;5.890;2022-09-17T04:55:21;174.63;;;165.83;;
66933;SDS011;53846;51.984;5.890;2022-09-17T04:57:53;170.90;;;162.13;;
66933;SDS011;53846;51.984;5.890;2022-09-17T05:00:23;172.07;;;163.30;;
66933;SDS011;53846;51.984;5.890;2022-09-17T05:02:53;163.50;;;155.17;;
66933;SDS011;53846;51.984;5.890;2022-09-17T05:05:23;167.03;;;158.50;;
66933;SDS011;53846;51.984;5.890;2022-09-17T05:07:52;161.97;;;153.73;;
66933;SDS011;53846;51.984;5.890;2022-09-17T05:10:22;186.03;;;176.57;;
66933;SDS011;53846;51.984;5.890;2022-09-17T05:12:54;177.10;;;168.07;;
66933;SDS011;53846;51.984;5.890;2022-09-17T05:15:24;177.93;;;168.63;;
66933;SDS011;53846;51.984;5.890;2022-09-17T05:17:54;182.13;;;172.90;;
66933;SDS011;53846;51.984;5.890;2022-09-17T05:20:23;201.50;;;191.07;;
66933;SDS011;53846;51.984;5.890;2022-09-17T05:22:52;89.28;;;84.75;;
66933;SDS011;53846;51.984;5.890;2022-09-17T05:25:21;166.07;;;157.67;;
66933;SDS011;53846;51.984;5.890;2022-09-17T05:27:53;171.07;;;162.33;;
66933;SDS011;53846;51.984;5.890;2022-09-17T05:30:23;188.43;;;178.90;;
66933;SDS011;53846;51.984;5.890;2022-09-17T05:32:57;177.40;;;168.20;;
66933;SDS011;53846;51.984;5.890;2022-09-17T05:35:28;181.67;;;172.37;;
66933;SDS011;53846;51.984;5.890;2022-09-17T05:37:58;176.97;;;167.97;;
66933;SDS011;53846;51.984;5.890;2022-09-17T05:40:28;183.17;;;174.00;;
66933;SDS011;53846;51.984;5.890;2022-09-17T05:43:01;201.43;;;191.30;;
66933;SDS011;53846;51.984;5.890;2022-09-17T05:45:32;182.93;;;173.63;;
66933;SDS011;53846;51.984;5.890;2022-09-17T05:48:03;186.50;;;177.10;;
66933;SDS011;53846;51.984;5.890;2022-09-17T05:50:34;193.43;;;183.63;;
66933;SDS011;53846;51.984;5.890;2022-09-17T05:53:04;191.07;;;181.37;;
66933;SDS011;53846;51.984;5.890;2022-09-17T05:55:34;193.30;;;183.40;;
66933;SDS011;53846;51.984;5.890;2022-09-17T05:58:13;180.90;;;171.70;;
66933;SDS011;53846;51.984;5.890;2022-09-17T06:00:44;177.27;;;168.17;;
66933;SDS011;53846;51.984;5.890;2022-09-17T06:03:14;189.07;;;179.40;;
66933;SDS011;53846;51.984;5.890;2022-09-17T06:05:51;189.27;;;179.63;;
66933;SDS011;53846;51.984;5.890;2022-09-17T06:08:21;182.73;;;173.60;;
66933;SDS011;53846;51.984;5.890;2022-09-17T06:10:51;187.67;;;178.23;;
66933;SDS011;53846;51.984;5.890;2022-09-17T06:13:24;182.83;;;173.47;;
66933;SDS011;53846;51.984;5.890;2022-09-17T06:15:53;201.43;;;191.20;;
66933;SDS011;53846;51.984;5.890;2022-09-17T06:18:22;178.27;;;169.13;;
66933;SDS011;53846;51.984;5.890;2022-09-17T06:20:52;176.83;;;167.87;;
66933;SDS011;53846;51.984;5.890;2022-09-17T06:23:22;173.70;;;164.67;;
66933;SDS011;53846;51.984;5.890;2022-09-17T06:25:52;192.10;;;182.33;;
66933;SDS011;53846;51.984;5.890;2022-09-17T06:28:25;192.07;;;182.20;;
66933;SDS011;53846;51.984;5.890;2022-09-17T06:30:58;209.10;;;198.40;;
66933;SDS011;53846;51.984;5.890;2022-09-17T06:33:28;214.03;;;203.03;;
66933;SDS011;53846;51.984;5.890;2022-09-17T06:35:59;227.10;;;215.57;;
66933;SDS011;53846;51.984;5.890;2022-09-17T06:38:30;205.47;;;195.03;;
66933;SDS011;53846;51.984;5.890;2022-09-17T06:41:00;91.07;;;86.45;;
66933;SDS011;53846;51.984;5.890;2022-09-17T06:43:32;186.23;;;176.67;;
66933;SDS011;53846;51.984;5.890;2022-09-17T06:46:02;204.23;;;193.70;;
66933;SDS011;53846;51.984;5.890;2022-09-17T06:48:34;223.10;;;211.53;;
66933;SDS011;53846;51.984;5.890;2022-09-17T06:51:04;225.63;;;213.90;;
66933;SDS011;53846;51.984;5.890;2022-09-17T06:53:35;216.27;;;205.27;;
66933;SDS011;53846;51.984;5.890;2022-09-17T06:56:07;229.30;;;217.57;;
66933;SDS011;53846;51.984;5.890;2022-09-17T06:58:39;221.00;;;209.77;;
66933;SDS011;53846;51.984;5.890;2022-09-17T07:01:09;213.57;;;202.63;;
66933;SDS011;53846;51.984;5.890;2022-09-17T07:03:40;211.67;;;200.80;;
66933;SDS011;53846;51.984;5.890;2022-09-17T07:06:10;200.37;;;190.07;;
66933;SDS011;53846;51.984;5.890;2022-09-17T07:08:39;168.20;;;159.70;;
66933;SDS011;53846;51.984;5.890;2022-09-17T07:11:09;162.87;;;154.47;;
66933;SDS011;53846;51.984;5.890;2022-09-17T07:13:40;158.93;;;150.83;;
66933;SDS011;53846;51.984;5.890;2022-09-17T07:16:10;154.60;;;146.47;;
66933;SDS011;53846;51.984;5.890;2022-09-17T07:18:39;130.87;;;124.20;;
66933;SDS011;53846;51.984;5.890;2022-09-17T07:21:08;108.00;;;102.50;;
66933;SDS011;53846;51.984;5.890;2022-09-17T07:23:38;103.00;;;97.83;;
66933;SDS011;53846;51.984;5.890;2022-09-17T07:26:08;75.50;;;71.73;;
66933;SDS011;53846;51.984;5.890;2022-09-17T07:28:43;68.78;;;65.40;;
66933;SDS011;53846;51.984;5.890;2022-09-17T07:31:13;46.77;;;44.47;;
66933;SDS011;53846;51.984;5.890;2022-09-17T07:33:43;42.27;;;40.23;;
66933;SDS011;53846;51.984;5.890;2022-09-17T07:36:13;24.58;;;23.48;;
66933;SDS011;53846;51.984;5.890;2022-09-17T07:38:44;23.33;;;22.23;;
66933;SDS011;53846;51.984;5.890;2022-09-17T07:41:14;22.20;;;21.20;;
66933;SDS011;53846;51.984;5.890;2022-09-17T07:43:46;25.63;;;24.42;;
66933;SDS011;53846;51.984;5.890;2022-09-17T07:46:16;220.45;;;209.82;;
66933;SDS011;53846;51.984;5.890;2022-09-17T07:48:47;60.72;;;57.83;;
66933;SDS011;53846;51.984;5.890;2022-09-17T07:51:17;50.92;;;48.50;;
66933;SDS011;53846;51.984;5.890;2022-09-17T07:53:49;51.40;;;48.97;;
66933;SDS011;53846;51.984;5.890;2022-09-17T07:56:19;49.10;;;46.75;;
66933;SDS011;53846;51.984;5.890;2022-09-17T07:58:50;48.30;;;46.00;;
66933;SDS011;53846;51.984;5.890;2022-09-17T08:01:20;45.67;;;43.53;;
66933;SDS011;53846;51.984;5.890;2022-09-17T08:03:50;47.75;;;45.47;;
66933;SDS011;53846;51.984;5.890;2022-09-17T08:06:21;50.20;;;47.83;;
66933;SDS011;53846;51.984;5.890;2022-09-17T08:08:52;45.03;;;42.90;;
66933;SDS011;53846;51.984;5.890;2022-09-17T08:11:22;43.00;;;40.95;;
66933;SDS011;53846;51.984;5.890;2022-09-17T08:13:56;47.83;;;45.58;;
66933;SDS011;53846;51.984;5.890;2022-09-17T08:16:25;44.10;;;42.03;;
66933;SDS011;53846;51.984;5.890;2022-09-17T08:18:55;46.72;;;44.33;;
66933;SDS011;53846;51.984;5.890;2022-09-17T08:21:25;30.92;;;29.52;;
66933;SDS011;53846;51.984;5.890;2022-09-17T08:23:54;33.85;;;32.28;;
66933;SDS011;53846;51.984;5.890;2022-09-17T08:26:23;20.33;;;19.40;;
66933;SDS011;53846;51.984;5.890;2022-09-17T08:28:53;30.25;;;28.85;;
66933;SDS011;53846;51.984;5.890;2022-09-17T08:31:25;22.65;;;21.63;;
66933;SDS011;53846;51.984;5.890;2022-09-17T08:33:57;28.55;;;27.23;;
66933;SDS011;53846;51.984;5.890;2022-09-17T08:36:28;27.00;;;25.75;;
66933;SDS011;53846;51.984;5.890;2022-09-17T08:38:57;25.42;;;24.25;;
66933;SDS011;53846;51.984;5.890;2022-09-17T08:41:29;24.35;;;23.23;;
66933;SDS011;53846;51.984;5.890;2022-09-17T08:44:13;17.42;;;16.63;;
66933;SDS011;53846;51.984;5.890;2022-09-17T08:46:49;14.00;;;13.40;;
66933;SDS011;53846;51.984;5.890;2022-09-17T08:49:31;9.40;;;9.00;;
66933;SDS011;53846;51.984;5.890;2022-09-17T08:54:57;11.15;;;10.65;;
66933;SDS011;53846;51.984;5.890;2022-09-17T08:57:33;12.32;;;11.80;;
66933;SDS011;53846;51.984;5.890;2022-09-17T09:00:13;11.75;;;11.25;;
66933;SDS011;53846;51.984;5.890;2022-09-17T09:02:59;7.90;;;7.60;;
66933;SDS011;53846;51.984;5.890;2022-09-17T09:05:41;6.15;;;5.95;;
66933;SDS011;53846;51.984;5.890;2022-09-17T09:08:15;5.05;;;4.85;;
66933;SDS011;53846;51.984;5.890;2022-09-17T09:10:48;6.13;;;5.93;;
66933;SDS011;53846;51.984;5.890;2022-09-17T09:13:20;5.82;;;5.43;;
66933;SDS011;53846;51.984;5.890;2022-09-17T09:15:56;3.72;;;3.63;;
66933;SDS011;53846;51.984;5.890;2022-09-17T09:18:29;4.30;;;4.10;;
66933;SDS011;53846;51.984;5.890;2022-09-17T09:21:03;4.85;;;4.60;;
66933;SDS011;53846;51.984;5.890;2022-09-17T09:23:47;3.90;;;3.80;;
66933;SDS011;53846;51.984;5.890;2022-09-17T09:26:31;3.15;;;3.05;;
66933;SDS011;53846;51.984;5.890;2022-09-17T09:29:09;7.78;;;3.42;;
66933;SDS011;53846;51.984;5.890;2022-09-17T09:31:53;3.03;;;2.92;;
66933;SDS011;53846;51.984;5.890;2022-09-17T09:34:39;2.97;;;2.88;;
66933;SDS011;53846;51.984;5.890;2022-09-17T09:37:10;3.30;;;3.20;;
66933;SDS011;53846;51.984;5.890;2022-09-17T09:39:41;3.85;;;3.72;;
66933;SDS011;53846;51.984;5.890;2022-09-17T09:42:15;3.20;;;3.10;;
66933;SDS011;53846;51.984;5.890;2022-09-17T09:44:51;4.05;;;3.90;;
66933;SDS011;53846;51.984;5.890;2022-09-17T09:47:26;3.85;;;3.72;;
66933;SDS011;53846;51.984;5.890;2022-09-17T09:50:16;4.25;;;4.10;;
66933;SDS011;53846;51.984;5.890;2022-09-17T09:52:59;4.60;;;4.43;;
66933;SDS011;53846;51.984;5.890;2022-09-17T09:55:39;4.18;;;4.03;;
66933;SDS011;53846;51.984;5.890;2022-09-17T09:58:20;6.03;;;5.78;;
66933;SDS011;53846;51.984;5.890;2022-09-17T10:00:55;6.18;;;5.90;;
66933;SDS011;53846;51.984;5.890;2022-09-17T10:03:28;6.30;;;5.90;;
66933;SDS011;53846;51.984;5.890;2022-09-17T10:05:59;3.03;;;2.92;;
66933;SDS011;53846;51.984;5.890;2022-09-17T10:08:32;2.53;;;2.42;;
66933;SDS011;53846;51.984;5.890;2022-09-17T10:11:03;2.47;;;2.38;;
66933;SDS011;53846;51.984;5.890;2022-09-17T10:13:34;2.25;;;2.15;;
66933;SDS011;53846;51.984;5.890;2022-09-17T10:16:14;2.65;;;2.55;;
66933;SDS011;53846;51.984;5.890;2022-09-17T10:18:47;2.92;;;2.83;;
66933;SDS011;53846;51.984;5.890;2022-09-17T10:21:18;3.83;;;3.72;;
66933;SDS011;53846;51.984;5.890;2022-09-17T10:23:48;4.88;;;4.68;;
66933;SDS011;53846;51.984;5.890;2022-09-17T10:26:21;7.97;;;7.68;;
66933;SDS011;53846;51.984;5.890;2022-09-17T10:28:53;10.13;;;9.70;;
66933;SDS011;53846;51.984;5.890;2022-09-17T10:31:23;18.23;;;17.42;;
66933;SDS011;53846;51.984;5.890;2022-09-17T10:33:57;23.63;;;22.55;;
66933;SDS011;53846;51.984;5.890;2022-09-17T10:36:36;28.73;;;27.40;;
66933;SDS011;53846;51.984;5.890;2022-09-17T10:41:59;26.10;;;24.90;;
66933;SDS011;53846;51.984;5.890;2022-09-17T10:44:30;26.50;;;25.25;;
66933;SDS011;53846;51.984;5.890;2022-09-17T10:47:02;25.25;;;24.10;;
66933;SDS011;53846;51.984;5.890;2022-09-17T10:49:37;26.35;;;25.15;;
66933;SDS011;53846;51.984;5.890;2022-09-17T10:52:11;25.55;;;24.40;;
66933;SDS011;53846;51.984;5.890;2022-09-17T10:54:58;31.05;;;29.60;;
66933;SDS011;53846;51.984;5.890;2022-09-17T10:58:08;35.92;;;34.25;;
66933;SDS011;53846;51.984;5.890;2022-09-17T11:00:47;35.15;;;33.50;;
66933;SDS011;53846;51.984;5.890;2022-09-17T11:06:23;46.17;;;44.00;;
66933;SDS011;53846;51.984;5.890;2022-09-17T11:09:01;46.03;;;43.85;;
66933;SDS011;53846;51.984;5.890;2022-09-17T11:11:39;48.90;;;46.60;;
66933;SDS011;53846;51.984;5.890;2022-09-17T11:14:23;48.95;;;46.65;;
66933;SDS011;53846;51.984;5.890;2022-09-17T11:17:06;43.70;;;41.67;;
66933;SDS011;53846;51.984;5.890;2022-09-17T11:19:42;22.13;;;21.13;;
66933;SDS011;53846;51.984;5.890;2022-09-17T11:22:22;7.97;;;7.68;;
66933;SDS011;53846;51.984;5.890;2022-09-17T11:25:05;7.43;;;7.13;;
66933;SDS011;53846;51.984;5.890;2022-09-17T11:27:49;7.82;;;7.53;;
66933;SDS011;53846;51.984;5.890;2022-09-17T11:30:26;9.20;;;8.82;;
66933;SDS011;53846;51.984;5.890;2022-09-17T11:35:59;10.48;;;10.02;;
66933;SDS011;53846;51.984;5.890;2022-09-17T11:38:37;13.88;;;13.27;;
66933;SDS011;53846;51.984;5.890;2022-09-17T11:41:09;18.27;;;17.45;;
66933;SDS011;53846;51.984;5.890;2022-09-17T11:43:43;24.40;;;23.25;;
66933;SDS011;53846;51.984;5.890;2022-09-17T11:46:17;17.60;;;16.80;;
66933;SDS011;53846;51.984;5.890;2022-09-17T11:48:51;23.70;;;22.60;;
66933;SDS011;53846;51.984;5.890;2022-09-17T11:51:26;25.05;;;23.90;;
66933;SDS011;53846;51.984;5.890;2022-09-17T11:54:04;27.40;;;26.15;;
66933;SDS011;53846;51.984;5.890;2022-09-17T11:56:37;21.10;;;20.15;;
66933;SDS011;53846;51.984;5.890;2022-09-17T11:59:12;24.70;;;23.58;;
66933;SDS011;53846;51.984;5.890;2022-09-17T12:01:47;19.13;;;18.27;;
66933;SDS011;53846;51.984;5.890;2022-09-17T12:04:36;30.65;;;29.23;;
66933;SDS011;53846;51.984;5.890;2022-09-17T12:07:14;25.42;;;24.27;;
66933;SDS011;53846;51.984;5.890;2022-09-17T12:09:54;31.52;;;30.08;;
66933;SDS011;53846;51.984;5.890;2022-09-17T12:12:27;24.23;;;23.13;;
66933;SDS011;53846;51.984;5.890;2022-09-17T12:15:01;17.65;;;16.85;;
66933;SDS011;53846;51.984;5.890;2022-09-17T12:17:36;11.50;;;11.02;;
66933;SDS011;53846;51.984;5.890;2022-09-17T12:20:13;12.77;;;9.18;;
66933;SDS011;53846;51.984;5.890;2022-09-17T12:22:49;4.80;;;4.60;;
66933;SDS011;53846;51.984;5.890;2022-09-17T12:25:22;3.55;;;3.45;;
66933;SDS011;53846;51.984;5.890;2022-09-17T12:27:54;2.90;;;2.80;;
66933;SDS011;53846;51.984;5.890;2022-09-17T12:30:31;2.60;;;2.50;;
66933;SDS011;53846;51.984;5.890;2022-09-17T12:33:08;2.38;;;2.28;;
66933;SDS011;53846;51.984;5.890;2022-09-17T12:35:50;3.30;;;3.10;;
66933;SDS011;53846;51.984;5.890;2022-09-17T12:38:46;3.35;;;3.25;;
66933;SDS011;53846;51.984;5.890;2022-09-17T12:41:36;3.15;;;3.05;;
66933;SDS011;53846;51.984;5.890;2022-09-17T12:44:17;3.30;;;3.20;;
66933;SDS011;53846;51.984;5.890;2022-09-17T12:47:09;3.60;;;3.47;;
66933;SDS011;53846;51.984;5.890;2022-09-17T12:50:01;3.10;;;3.00;;
66933;SDS011;53846;51.984;5.890;2022-09-17T12:52:43;3.53;;;3.42;;
66933;SDS011;53846;51.984;5.890;2022-09-17T12:58:15;3.08;;;2.97;;
66933;SDS011;53846;51.984;5.890;2022-09-17T13:00:52;4.72;;;4.53;;
66933;SDS011;53846;51.984;5.890;2022-09-17T13:03:27;7.18;;;6.88;;
66933;SDS011;53846;51.984;5.890;2022-09-17T13:09:02;6.03;;;5.82;;
66933;SDS011;53846;51.984;5.890;2022-09-17T13:11:47;3.97;;;3.88;;
66933;SDS011;53846;51.984;5.890;2022-09-17T13:14:45;3.70;;;3.60;;
66933;SDS011;53846;51.984;5.890;2022-09-17T13:17:32;4.45;;;4.25;;
66933;SDS011;53846;51.984;5.890;2022-09-17T13:20:10;4.80;;;4.60;;
66933;SDS011;53846;51.984;5.890;2022-09-17T13:22:45;7.20;;;6.90;;
66933;SDS011;53846;51.984;5.890;2022-09-17T13:25:18;9.05;;;8.60;;
66933;SDS011;53846;51.984;5.890;2022-09-17T13:27:50;9.35;;;8.95;;
66933;SDS011;53846;51.984;5.890;2022-09-17T13:39:06;10.90;;;10.43;;
66933;SDS011;53846;51.984;5.890;2022-09-17T13:41:37;13.65;;;13.05;;
66933;SDS011;53846;51.984;5.890;2022-09-17T13:44:08;14.57;;;13.80;;
66933;SDS011;53846;51.984;5.890;2022-09-17T13:46:40;12.45;;;11.90;;
66933;SDS011;53846;51.984;5.890;2022-09-17T13:49:11;6.60;;;6.32;;
66933;SDS011;53846;51.984;5.890;2022-09-17T13:51:50;5.85;;;5.60;;
66933;SDS011;53846;51.984;5.890;2022-09-17T13:54:21;3.80;;;3.70;;
66933;SDS011;53846;51.984;5.890;2022-09-17T13:57:05;3.22;;;3.13;;
66933;SDS011;53846;51.984;5.890;2022-09-17T13:59:37;3.15;;;3.05;;
66933;SDS011;53846;51.984;5.890;2022-09-17T14:02:31;3.78;;;3.67;;
66933;SDS011;53846;51.984;5.890;2022-09-17T14:08:10;3.80;;;3.60;;
66933;SDS011;53846;51.984;5.890;2022-09-17T14:10:58;5.00;;;4.80;;
66933;SDS011;53846;51.984;5.890;2022-09-17T14:13:40;4.15;;;4.00;;
66933;SDS011;53846;51.984;5.890;2022-09-17T14:22:07;2.60;;;2.50;;
66933;SDS011;53846;51.984;5.890;2022-09-17T14:24:47;3.17;;;3.08;;
66933;SDS011;53846;51.984;5.890;2022-09-17T14:27:28;4.72;;;4.53;;
66933;SDS011;53846;51.984;5.890;2022-09-17T14:30:13;52.35;;;49.75;;
66933;SDS011;53846;51.984;5.890;2022-09-17T14:32:46;7.00;;;6.70;;
66933;SDS011;53846;51.984;5.890;2022-09-17T14:35:25;4.05;;;3.92;;
66933;SDS011;53846;51.984;5.890;2022-09-17T14:38:02;4.20;;;4.00;;
66933;SDS011;53846;51.984;5.890;2022-09-17T14:40:39;4.30;;;4.10;;
66933;SDS011;53846;51.984;5.890;2022-09-17T14:43:14;3.75;;;3.65;;
66933;SDS011;53846;51.984;5.890;2022-09-17T14:45:47;3.85;;;3.75;;
66933;SDS011;53846;51.984;5.890;2022-09-17T14:48:26;4.63;;;4.43;;
66933;SDS011;53846;51.984;5.890;2022-09-17T14:57:02;2.67;;;2.58;;
66933;SDS011;53846;51.984;5.890;2022-09-17T14:59:48;4.07;;;3.78;;
66933;SDS011;53846;51.984;5.890;2022-09-17T15:02:27;3.45;;;3.35;;
66933;SDS011;53846;51.984;5.890;2022-09-17T15:04:59;3.42;;;3.33;;
66933;SDS011;53846;51.984;5.890;2022-09-17T15:07:33;4.15;;;4.03;;
66933;SDS011;53846;51.984;5.890;2022-09-17T15:10:06;5.22;;;5.03;;
66933;SDS011;53846;51.984;5.890;2022-09-17T15:12:36;6.35;;;6.07;;
66933;SDS011;53846;51.984;5.890;2022-09-17T15:15:09;8.57;;;8.18;;
66933;SDS011;53846;51.984;5.890;2022-09-17T15:17:46;6.38;;;6.13;;
66933;SDS011;53846;51.984;5.890;2022-09-17T15:20:17;7.32;;;7.03;;
66933;SDS011;53846;51.984;5.890;2022-09-17T15:22:53;8.35;;;8.00;;
66933;SDS011;53846;51.984;5.890;2022-09-17T15:25:28;7.45;;;7.15;;
66933;SDS011;53846;51.984;5.890;2022-09-17T15:27:59;8.35;;;8.00;;
66933;SDS011;53846;51.984;5.890;2022-09-17T15:30:49;6.57;;;6.30;;
66933;SDS011;53846;51.984;5.890;2022-09-17T15:33:18;7.32;;;7.00;;
66933;SDS011;53846;51.984;5.890;2022-09-17T15:35:58;7.30;;;7.00;;
66933;SDS011;53846;51.984;5.890;2022-09-17T15:38:35;6.80;;;6.53;;
66933;SDS011;53846;51.984;5.890;2022-09-17T15:41:18;8.77;;;8.40;;
66933;SDS011;53846;51.984;5.890;2022-09-17T15:43:52;4.25;;;4.10;;